Time;durP1;ratioP1;P1;durP2;ratioP2;P2;SDS_P1;SDS_P2;PMS_P1;PMS_P2;Temp;Humidity;BMP_temperature;BMP_pressure;BME280_temperature;BME280_humidity;BME280_pressure;Samples;Min_cycle;Max_cycle;Signal;HPM_P1;HPM_P2
2023/05/22 00:00:30;;;;;;;17.17;15.57;;;16.40;1.00;;;;;;5057007;28;20531;-72
2023/05/22 00:02:58;;;;;;;16.30;14.67;;;16.40;1.00;;;;;;5056597;28;20458;-71
2023/05/22 00:05:26;;;;;;;15.17;13.80;;;16.40;1.00;;;;;;5057438;28;20462;-71
2023/05/22 00:07:54;;;;;;;15.77;14.13;;;16.40;99.90;;;;;;5057692;28;20466;-72
2023/05/22 00:10:21;;;;;;;15.73;14.03;;;16.40;99.90;;;;;;5057404;28;20560;-72
2023/05/22 00:12:48;;;;;;;16.90;15.20;;;16.40;1.00;;;;;;5056772;28;20909;-72
2023/05/22 00:15:15;;;;;;;15.53;14.03;;;16.40;1.00;;;;;;5056559;28;20553;-72
2023/05/22 00:17:43;;;;;;;17.37;15.67;;;16.50;1.00;;;;;;5056982;28;20462;-72
2023/05/22 00:20:10;;;;;;;15.00;13.70;;;16.40;1.00;;;;;;5057210;28;20466;-73
2023/05/22 00:22:39;;;;;;;15.60;14.10;;;16.40;1.00;;;;;;5056506;28;20458;-73
2023/05/22 00:25:08;;;;;;;16.50;15.00;;;16.40;99.90;;;;;;5057100;28;20466;-72
2023/05/22 00:27:35;;;;;;;16.23;14.83;;;16.30;99.90;;;;;;5057007;28;20547;-72
2023/05/22 00:30:02;;;;;;;17.27;15.77;;;16.30;99.90;;;;;;5057446;28;20462;-71
2023/05/22 00:32:30;;;;;;;17.53;15.93;;;16.30;99.90;;;;;;5056692;28;20888;-71
2023/05/22 00:34:57;;;;;;;17.57;15.97;;;16.30;99.90;;;;;;5056709;28;20557;-72
2023/05/22 00:37:25;;;;;;;16.30;14.80;;;16.20;99.90;;;;;;5056755;28;20468;-71
2023/05/22 00:39:54;;;;;;;16.17;14.67;;;16.10;1.00;;;;;;5056934;28;20461;-72
2023/05/22 00:42:21;;;;;;;17.70;16.00;;;16.00;99.90;;;;;;5057404;28;20489;-73
2023/05/22 00:44:48;;;;;;;19.30;17.50;;;16.00;99.90;;;;;;5057073;28;20573;-72
2023/05/22 00:47:15;;;;;;;19.40;17.60;;;16.00;1.00;;;;;;5056224;28;20553;-72
2023/05/22 00:49:44;;;;;;;17.67;16.03;;;15.90;99.90;;;;;;5058673;28;20458;-71
2023/05/22 00:52:16;;;;;;;18.27;16.47;;;15.90;99.90;;;;;;5061202;28;20463;-71
2023/05/22 00:54:43;;;;;;;17.80;16.30;;;15.80;1.00;;;;;;5059624;28;20477;-71
2023/05/22 00:57:13;;;;;;;17.30;15.50;;;15.80;1.00;;;;;;5057871;28;20580;-71
2023/05/22 00:59:40;;;;;;;20.10;17.77;;;15.70;66.20;;;;;;5062175;28;20508;-70
2023/05/22 01:02:07;;;;;;;18.43;16.63;;;15.80;99.90;;;;;;5062727;28;20462;-70
2023/05/22 01:04:36;;;;;;;20.83;18.70;;;15.70;99.90;;;;;;5063576;28;20748;-70
2023/05/22 01:07:04;;;;;;;18.90;17.20;;;15.60;99.90;;;;;;5060329;28;20465;-71
2023/05/22 01:09:32;;;;;;;19.20;17.30;;;15.60;99.90;;;;;;5058882;28;20462;-70
2023/05/22 01:12:06;;;;;;;20.03;18.10;;;15.60;99.90;;;;;;5060173;28;20521;-69
2023/05/22 01:14:44;;;;;;;23.90;18.00;;;15.70;99.90;;;;;;5058809;28;20505;-70
2023/05/22 01:17:21;;;;;;;19.93;18.00;;;15.60;99.90;;;;;;5059337;28;20957;-69
2023/05/22 01:20:09;;;;;;;19.60;17.60;;;15.50;99.90;;;;;;5057759;28;20465;-69
2023/05/22 01:22:59;;;;;;;19.43;17.43;;;15.60;99.90;;;;;;5046765;28;20847;-69
2023/05/22 01:25:46;;;;;;;19.50;17.60;;;15.50;99.90;;;;;;5038805;28;20495;-70
2023/05/22 01:28:36;;;;;;;20.00;18.10;;;15.40;99.90;;;;;;5040962;28;20585;-69
2023/05/22 01:31:07;;;;;;;20.37;18.37;;;15.40;99.90;;;;;;5042086;28;20459;-70
2023/05/22 01:33:41;;;;;;;18.57;16.87;;;15.40;99.90;;;;;;5043413;28;20467;-71
2023/05/22 01:36:09;;;;;;;20.63;17.77;;;15.40;99.90;;;;;;5041999;28;20490;-70
2023/05/22 01:38:37;;;;;;;21.43;19.20;;;15.30;99.90;;;;;;5041358;28;20462;-69
2023/05/22 01:41:05;;;;;;;22.10;20.10;;;15.30;99.90;;;;;;5042058;28;20842;-70
2023/05/22 01:43:36;;;;;;;21.97;19.83;;;15.40;99.90;;;;;;5041855;28;20778;-70
2023/05/22 01:46:05;;;;;;;20.37;18.37;;;15.30;99.90;;;;;;5042684;28;20462;-68
2023/05/22 01:48:33;;;;;;;20.67;18.57;;;15.30;99.90;;;;;;5043748;28;20467;-70
2023/05/22 01:51:05;;;;;;;19.90;18.00;;;15.20;99.90;;;;;;5045713;28;20769;-69
2023/05/22 01:53:41;;;;;;;19.23;17.43;;;15.20;99.90;;;;;;5045367;28;20845;-70
2023/05/22 01:56:14;;;;;;;19.10;17.30;;;15.20;99.90;;;;;;5043826;28;20515;-69
2023/05/22 01:58:47;;;;;;;19.67;17.50;;;15.20;99.90;;;;;;5042781;28;20463;-69
2023/05/22 02:01:17;;;;;;;20.00;18.00;;;15.20;99.90;;;;;;5044569;28;20467;-69
2023/05/22 02:03:47;;;;;;;19.70;17.70;;;15.20;99.90;;;;;;5043110;28;20772;-69
2023/05/22 02:06:15;;;;;;;19.60;17.63;;;15.10;99.90;;;;;;5043836;28;20470;-69
2023/05/22 02:08:44;;;;;;;19.33;17.40;;;15.10;99.90;;;;;;5042424;28;20471;-68
2023/05/22 02:11:13;;;;;;;20.17;18.07;;;15.10;99.90;;;;;;5041565;28;20558;-69
2023/05/22 02:13:41;;;;;;;19.87;17.77;;;15.00;99.90;;;;;;5041896;28;20463;-69
2023/05/22 02:16:08;;;;;;;19.27;17.37;;;15.00;99.90;;;;;;5042242;28;20466;-69
2023/05/22 02:18:37;;;;;;;19.90;18.10;;;15.00;99.90;;;;;;5042388;28;20517;-69
2023/05/22 02:21:07;;;;;;;21.20;19.20;;;15.00;99.90;;;;;;5044010;28;20522;-69
2023/05/22 02:23:34;;;;;;;20.20;18.40;;;15.00;99.90;;;;;;5042070;28;20833;-69
2023/05/22 02:26:02;;;;;;;18.27;16.47;;;14.90;99.90;;;;;;5042818;28;20505;-69
2023/05/22 02:28:29;;;;;;;19.67;17.17;;;14.90;99.90;;;;;;5040495;28;20483;-69
2023/05/22 02:30:56;;;;;;;19.57;17.67;;;14.90;99.90;;;;;;5041972;28;20449;-69
2023/05/22 02:33:23;;;;;;;21.17;19.07;;;14.90;99.90;;;;;;5040252;28;20588;-68
2023/05/22 02:35:52;;;;;;;20.47;18.37;;;14.90;99.90;;;;;;5042265;28;20467;-70
2023/05/22 02:38:19;;;;;;;20.50;18.50;;;14.90;99.90;;;;;;5039778;28;20529;-68
2023/05/22 02:40:46;;;;;;;22.13;19.97;;;14.90;99.90;;;;;;5040344;28;20462;-69
2023/05/22 02:43:13;;;;;;;22.60;20.20;;;14.90;99.90;;;;;;5039924;28;20477;-68
2023/05/22 02:45:41;;;;;;;22.97;20.87;;;14.80;99.90;;;;;;5040937;28;20470;-69
2023/05/22 02:48:08;;;;;;;21.17;19.27;;;14.80;99.90;;;;;;5039910;28;20754;-68
2023/05/22 02:50:35;;;;;;;22.00;19.70;;;14.80;99.90;;;;;;5039836;28;20470;-68
2023/05/22 02:53:04;;;;;;;22.53;20.23;;;14.80;99.90;;;;;;5039112;28;20505;-68
2023/05/22 02:55:31;;;;;;;22.77;20.50;;;14.80;99.90;;;;;;5041494;28;20467;-69
2023/05/22 02:57:58;;;;;;;24.07;21.50;;;14.80;99.90;;;;;;5040202;28;20495;-69
2023/05/22 03:00:25;;;;;;;26.50;22.63;;;14.80;99.90;;;;;;5039309;28;20517;-68
2023/05/22 03:02:53;;;;;;;24.57;22.17;;;14.80;99.90;;;;;;5039468;28;20481;-69
2023/05/22 03:05:20;;;;;;;28.10;22.37;;;14.70;99.90;;;;;;5041017;28;20562;-69
2023/05/22 03:07:47;;;;;;;23.50;20.70;;;14.70;99.90;;;;;;5041383;28;20557;-69
2023/05/22 03:10:16;;;;;;;24.73;21.50;;;14.70;99.90;;;;;;5039113;28;20463;-69
2023/05/22 03:12:43;;;;;;;27.60;24.53;;;14.60;99.90;;;;;;5040070;28;20459;-69
2023/05/22 03:15:11;;;;;;;25.73;23.13;;;14.60;99.90;;;;;;5040916;28;20466;-69
2023/05/22 03:17:38;;;;;;;26.20;23.60;;;14.60;99.90;;;;;;5039833;28;20472;-69
2023/05/22 03:20:07;;;;;;;26.13;22.73;;;14.60;99.90;;;;;;5039434;28;20489;-68
2023/05/22 03:22:34;;;;;;;27.27;24.67;;;14.60;99.90;;;;;;5041132;28;20466;-69
2023/05/22 03:25:02;;;;;;;26.17;23.40;;;14.60;99.90;;;;;;5040807;28;20502;-68
2023/05/22 03:27:31;;;;;;;29.10;26.20;;;14.60;99.90;;;;;;5040062;28;20798;-68
2023/05/22 03:29:58;;;;;;;28.07;24.40;;;14.60;99.90;;;;;;5039116;28;20483;-68
2023/05/22 03:32:25;;;;;;;29.60;26.50;;;14.60;99.90;;;;;;5039051;28;20473;-68
2023/05/22 03:34:52;;;;;;;29.67;25.87;;;14.60;99.90;;;;;;5039422;28;20522;-68
2023/05/22 03:37:19;;;;;;;27.00;24.30;;;14.60;99.90;;;;;;5039486;28;20888;-68
2023/05/22 03:39:47;;;;;;;28.43;25.40;;;14.60;99.90;;;;;;5039239;28;20507;-68
2023/05/22 03:42:15;;;;;;;28.33;25.20;;;14.60;99.90;;;;;;5039449;28;20908;-68
2023/05/22 03:44:43;;;;;;;28.30;25.30;;;14.60;99.90;;;;;;5039439;28;20474;-68
2023/05/22 03:47:10;;;;;;;28.33;25.43;;;14.50;99.90;;;;;;5040340;28;20529;-69
2023/05/22 03:49:38;;;;;;;30.07;27.00;;;14.50;99.90;;;;;;5039491;28;20900;-69
2023/05/22 03:52:05;;;;;;;31.47;28.17;;;14.50;99.90;;;;;;5040470;28;20846;-68
2023/05/22 03:54:32;;;;;;;31.03;27.90;;;14.50;99.90;;;;;;5038574;28;20561;-67
2023/05/22 03:56:59;;;;;;;30.17;26.57;;;14.50;99.90;;;;;;5038007;28;20491;-67
2023/05/22 03:59:26;;;;;;;29.87;26.67;;;14.50;99.90;;;;;;5039049;28;20529;-68
2023/05/22 04:01:59;;;;;;;30.30;26.30;;;14.60;99.90;;;;;;5039444;28;20558;-68
2023/05/22 04:04:27;;;;;;;26.93;24.23;;;14.50;99.90;;;;;;5038530;28;20474;-67
2023/05/22 04:06:56;;;;;;;28.97;25.83;;;14.60;99.90;;;;;;5038811;28;20490;-68
2023/05/22 04:09:27;;;;;;;27.00;23.53;;;14.60;99.90;;;;;;5039341;28;20459;-68
2023/05/22 04:11:54;;;;;;;27.67;25.00;;;14.60;99.90;;;;;;5038427;28;20473;-68
2023/05/22 04:14:21;;;;;;;27.43;24.60;;;14.60;99.90;;;;;;5040220;28;20558;-68
2023/05/22 04:16:49;;;;;;;29.53;25.57;;;14.70;99.90;;;;;;5038507;28;20490;-68
2023/05/22 04:19:17;;;;;;;30.33;26.10;;;14.60;99.90;;;;;;5039760;28;20485;-68
2023/05/22 04:21:44;;;;;;;29.23;26.00;;;14.60;99.90;;;;;;5038668;28;20525;-67
2023/05/22 04:24:13;;;;;;;29.33;25.70;;;14.70;99.90;;;;;;5040191;28;20466;-68
2023/05/22 04:26:41;;;;;;;29.93;26.73;;;14.70;99.90;;;;;;5041222;28;20900;-68
2023/05/22 04:29:09;;;;;;;28.17;25.27;;;14.70;99.90;;;;;;5041543;28;20541;-68
2023/05/22 04:31:36;;;;;;;25.83;23.30;;;14.70;99.90;;;;;;5041574;28;20467;-68
2023/05/22 04:34:04;;;;;;;27.07;24.20;;;14.80;99.90;;;;;;5041167;28;20468;-67
2023/05/22 04:36:32;;;;;;;27.23;24.53;;;14.90;99.90;;;;;;5039921;28;20773;-68
2023/05/22 04:39:01;;;;;;;26.33;23.30;;;14.90;99.90;;;;;;5039426;28;21027;-67
2023/05/22 04:41:28;;;;;;;27.07;23.53;;;15.00;99.90;;;;;;5038346;28;20499;-67
2023/05/22 04:43:55;;;;;;;25.87;21.83;;;15.00;99.90;;;;;;5039048;28;20473;-67
2023/05/22 04:46:22;;;;;;;24.73;22.20;;;15.10;99.90;;;;;;5039051;28;20465;-68
2023/05/22 04:48:49;;;;;;;24.10;21.60;;;15.20;99.90;;;;;;5038395;28;20459;-67
2023/05/22 04:51:17;;;;;;;24.97;22.40;;;15.20;99.90;;;;;;5038896;28;20565;-67
2023/05/22 04:53:48;;;;;;;23.73;21.40;;;15.20;99.90;;;;;;5038570;28;20541;-67
2023/05/22 04:56:15;;;;;;;23.57;21.20;;;15.30;99.90;;;;;;5038522;28;20503;-67
2023/05/22 04:58:42;;;;;;;23.17;20.87;;;15.30;99.90;;;;;;5038327;28;20469;-67
2023/05/22 05:01:09;;;;;;;22.50;20.20;;;15.30;99.90;;;;;;5040565;28;20462;-67
2023/05/22 05:03:38;;;;;;;22.20;20.10;;;15.40;99.90;;;;;;5042439;28;20488;-67
2023/05/22 05:06:07;;;;;;;23.73;20.70;;;15.50;99.90;;;;;;5042600;28;20458;-67
2023/05/22 05:08:34;;;;;;;23.00;20.53;;;15.50;99.90;;;;;;5042692;28;20446;-67
2023/05/22 05:11:03;;;;;;;21.77;19.57;;;15.60;99.90;;;;;;5050260;28;20830;-68
2023/05/22 05:13:30;;;;;;;21.70;19.60;;;15.70;99.90;;;;;;5049042;28;20433;-67
2023/05/22 05:15:59;;;;;;;23.33;20.87;;;15.80;99.90;;;;;;5046147;28;20888;-67
2023/05/22 05:18:26;;;;;;;21.63;19.63;;;15.80;99.90;;;;;;5049380;28;20472;-67
2023/05/22 05:20:54;;;;;;;21.60;19.40;;;15.90;99.90;;;;;;5050801;28;20454;-68
2023/05/22 05:23:21;;;;;;;21.50;19.37;;;16.00;99.90;;;;;;5061871;28;20462;-67
2023/05/22 05:25:48;;;;;;;23.33;21.10;;;16.10;99.90;;;;;;5060703;28;20465;-67
2023/05/22 05:28:17;;;;;;;20.97;18.90;;;16.10;99.90;;;;;;5060409;28;20853;-67
2023/05/22 05:30:44;;;;;;;22.17;20.03;;;16.20;99.90;;;;;;5045977;28;20469;-67
2023/05/22 05:33:12;;;;;;;22.63;20.47;;;16.30;99.90;;;;;;5039868;28;20466;-67
2023/05/22 05:35:39;;;;;;;21.97;19.77;;;16.40;99.90;;;;;;5042356;28;20461;-65
2023/05/22 05:38:06;;;;;;;24.87;21.90;;;16.50;99.90;;;;;;5051787;28;21012;-66
2023/05/22 05:40:33;;;;;;;23.20;20.57;;;16.60;99.90;;;;;;5057683;28;20470;-65
2023/05/22 05:43:00;;;;;;;20.60;18.70;;;16.60;99.90;;;;;;5058698;28;20475;-66
2023/05/22 05:45:29;;;;;;;20.30;18.43;;;16.70;99.90;;;;;;5057662;28;20466;-67
2023/05/22 05:47:56;;;;;;;23.17;20.80;;;16.80;99.90;;;;;;5058538;28;20803;-67
2023/05/22 05:50:23;;;;;;;23.37;21.07;;;16.80;1.20;;;;;;5057951;28;20469;-66
2023/05/22 05:52:51;;;;;;;22.40;20.10;;;16.80;30.10;;;;;;5057931;28;20637;-67
2023/05/22 05:55:18;;;;;;;22.90;20.80;;;16.80;11.50;;;;;;5057876;28;20565;-67
2023/05/22 05:57:45;;;;;;;22.10;20.10;;;17.00;1.00;;;;;;5058180;28;20525;-67
2023/05/22 06:00:13;;;;;;;24.00;21.80;;;17.10;99.90;;;;;;5058375;28;20533;-67
2023/05/22 06:02:42;;;;;;;24.33;21.83;;;17.10;1.00;;;;;;5058145;28;20436;-67
2023/05/22 06:05:09;;;;;;;25.00;22.70;;;17.40;1.00;;;;;;5057333;28;20573;-68
2023/05/22 06:07:38;;;;;;;27.00;24.03;;;17.60;1.00;;;;;;5058126;28;20538;-68
2023/05/22 06:10:06;;;;;;;25.33;22.67;;;17.70;1.00;;;;;;5058218;28;20466;-69
2023/05/22 06:12:33;;;;;;;26.33;23.57;;;17.80;1.00;;;;;;5056782;28;20545;-70
2023/05/22 06:15:00;;;;;;;26.43;23.90;;;17.90;99.90;;;;;;5059278;28;20556;-71
2023/05/22 06:17:28;;;;;;;27.73;24.97;;;18.00;1.00;;;;;;5059359;28;20490;-70
2023/05/22 06:19:56;;;;;;;25.80;23.27;;;17.80;35.10;;;;;;5059641;28;20901;-71
2023/05/22 06:22:24;;;;;;;25.10;22.70;;;17.90;99.90;;;;;;5057814;28;20469;-71
2023/05/22 06:24:53;;;;;;;26.10;23.60;;;18.10;99.90;;;;;;5038104;28;20470;-71
2023/05/22 06:27:21;;;;;;;24.03;21.73;;;18.20;99.90;;;;;;5038667;28;20463;-71
2023/05/22 06:29:48;;;;;;;24.07;21.93;;;18.40;99.90;;;;;;5038396;28;20796;-70
2023/05/22 06:32:15;;;;;;;23.70;21.40;;;18.40;1.00;;;;;;5038228;28;20623;-69
2023/05/22 06:34:45;;;;;;;24.63;22.17;;;18.40;1.00;;;;;;5039300;28;20951;-67
2023/05/22 06:37:13;;;;;;;25.33;22.53;;;18.50;99.90;;;;;;5038544;28;20463;-67
2023/05/22 06:39:40;;;;;;;24.67;22.10;;;18.80;1.00;;;;;;5039226;28;20544;-67
2023/05/22 06:42:08;;;;;;;21.93;19.83;;;18.90;99.90;;;;;;5039014;28;20554;-67
2023/05/22 06:44:35;;;;;;;23.10;20.60;;;18.90;1.00;;;;;;5035500;28;20776;-66
2023/05/22 06:47:02;;;;;;;22.00;19.90;;;18.80;1.00;;;;;;5036039;28;20454;-66
2023/05/22 06:49:30;;;;;;;21.33;19.30;;;19.10;1.00;;;;;;5036619;28;20473;-66
2023/05/22 06:51:57;;;;;;;21.60;19.50;;;19.40;89.70;;;;;;5036497;28;20470;-66
2023/05/22 06:54:27;;;;;;;21.50;19.57;;;19.60;99.90;;;;;;5036030;28;20474;-66
2023/05/22 06:56:54;;;;;;;20.67;18.67;;;19.90;9.70;;;;;;5044549;28;20517;-66
2023/05/22 06:59:21;;;;;;;22.37;20.20;;;20.00;1.00;;;;;;5043340;28;20497;-65
2023/05/22 07:01:49;;;;;;;22.20;20.00;;;20.20;99.90;;;;;;5037239;28;20466;-66
2023/05/22 07:04:16;;;;;;;20.10;18.13;;;20.40;99.90;;;;;;5036779;28;20469;-65
2023/05/22 07:06:44;;;;;;;21.30;18.97;;;20.60;1.00;;;;;;5036342;28;20769;-65
2023/05/22 07:09:12;;;;;;;19.57;17.07;;;20.80;1.00;;;;;;5036522;28;20486;-63
2023/05/22 07:11:42;;;;;;;20.57;18.43;;;21.00;1.00;;;;;;5036487;28;20507;-62
2023/05/22 07:14:11;;;;;;;20.43;18.40;;;21.20;1.00;;;;;;5036022;28;20485;-63
2023/05/22 07:16:39;;;;;;;21.40;19.17;;;21.30;1.00;;;;;;5029821;28;20573;-63
2023/05/22 07:19:07;;;;;;;21.07;18.90;;;21.30;1.00;;;;;;5033176;28;20548;-62
2023/05/22 07:21:34;;;;;;;19.93;18.03;;;21.40;1.00;;;;;;5033336;28;20471;-62
2023/05/22 07:24:07;;;;;;;20.23;18.33;;;21.10;1.00;;;;;;5033469;28;20474;-62
2023/05/22 07:26:34;;;;;;;19.60;17.20;;;21.30;1.00;;;;;;5034743;28;20521;-62
2023/05/22 07:29:03;;;;;;;20.07;18.17;;;21.50;1.00;;;;;;5035776;28;20539;-62
2023/05/22 07:31:33;;;;;;;20.10;18.10;;;21.50;1.00;;;;;;5044559;28;20463;-61
2023/05/22 07:34:00;;;;;;;20.27;18.47;;;21.50;1.00;;;;;;5043412;28;20454;-61
2023/05/22 07:36:27;;;;;;;19.13;17.13;;;21.60;1.00;;;;;;5046635;28;20486;-61
2023/05/22 07:38:54;;;;;;;21.43;19.43;;;21.70;1.00;;;;;;5054159;28;20584;-62
2023/05/22 07:41:22;;;;;;;23.80;19.23;;;21.50;1.00;;;;;;5046001;28;20543;-61
2023/05/22 07:43:50;;;;;;;21.80;19.47;;;21.50;1.00;;;;;;5033546;28;20566;-61
2023/05/22 07:46:18;;;;;;;20.17;18.13;;;21.80;1.00;;;;;;5034760;28;20605;-61
2023/05/22 07:48:45;;;;;;;21.10;19.30;;;22.10;1.00;;;;;;5035266;28;20753;-61
2023/05/22 07:51:13;;;;;;;22.77;20.57;;;22.70;1.00;;;;;;5034839;28;21032;-60
2023/05/22 07:53:40;;;;;;;32.70;18.67;;;23.00;1.00;;;;;;5032210;28;20475;-61
2023/05/22 07:56:07;;;;;;;21.60;19.60;;;23.00;99.90;;;;;;5015586;28;20464;-60
2023/05/22 07:58:35;;;;;;;20.07;18.20;;;23.30;99.90;;;;;;5015904;28;20506;-60
2023/05/22 08:01:03;;;;;;;20.70;18.77;;;23.50;99.90;;;;;;5015463;28;20456;-61
2023/05/22 08:03:32;;;;;;;20.07;17.70;;;23.40;99.90;;;;;;5024733;28;20558;-60
2023/05/22 08:05:59;;;;;;;18.90;17.10;;;23.10;99.90;;;;;;5033534;28;20469;-60
2023/05/22 08:08:26;;;;;;;20.27;18.43;;;23.20;1.00;;;;;;5033468;28;20868;-61
2023/05/22 08:10:53;;;;;;;20.47;18.30;;;23.10;1.00;;;;;;5033579;28;20549;-60
2023/05/22 08:13:22;;;;;;;20.47;18.47;;;22.90;1.00;;;;;;5048085;28;20958;-61
2023/05/22 08:15:49;;;;;;;21.53;19.43;;;22.80;1.00;;;;;;5053862;28;20473;-62
2023/05/22 08:18:16;;;;;;;20.27;18.57;;;23.00;99.90;;;;;;5055177;28;20490;-60
2023/05/22 08:20:46;;;;;;;20.00;18.07;;;23.10;99.90;;;;;;5055549;28;20563;-60
2023/05/22 08:23:13;;;;;;;20.00;18.30;;;23.10;1.00;;;;;;5055546;28;20835;-60
2023/05/22 08:25:41;;;;;;;21.40;19.40;;;23.70;1.00;;;;;;5054691;28;20458;-60
2023/05/22 08:28:08;;;;;;;22.83;20.67;;;24.00;1.00;;;;;;5055670;28;20478;-61
2023/05/22 08:30:36;;;;;;;21.07;19.13;;;24.20;1.00;;;;;;5055557;28;20462;-60
2023/05/22 08:33:03;;;;;;;20.90;19.00;;;23.80;1.00;;;;;;5055492;28;20662;-59
2023/05/22 08:35:30;;;;;;;23.70;21.43;;;23.90;1.00;;;;;;5054477;28;20560;-60
2023/05/22 08:37:58;;;;;;;23.50;21.40;;;23.80;1.00;;;;;;5056341;28;20768;-60
2023/05/22 08:40:34;;;;;;;26.53;24.13;;;24.40;1.00;;;;;;5056587;28;20462;-60
2023/05/22 08:43:01;;;;;;;26.03;23.73;;;24.00;1.00;;;;;;5056416;28;20461;-60
2023/05/22 08:45:32;;;;;;;27.97;25.33;;;24.10;1.00;;;;;;5050309;28;20475;-61
2023/05/22 08:48:03;;;;;;;31.17;28.27;;;24.40;1.00;;;;;;5036343;28;20472;-60
2023/05/22 08:50:31;;;;;;;29.47;26.60;;;24.20;1.00;;;;;;5036153;28;20467;-59
2023/05/22 08:53:02;;;;;;;30.87;28.07;;;24.60;1.00;;;;;;5029812;28;20936;-60
2023/05/22 08:55:29;;;;;;;31.33;28.50;;;24.60;1.00;;;;;;5025350;28;20441;-60
2023/05/22 08:57:57;;;;;;;37.30;33.47;;;24.90;99.90;;;;;;5041093;28;20483;-62
2023/05/22 09:00:24;;;;;;;39.17;35.27;;;24.90;99.90;;;;;;5036773;28;20749;-60
2023/05/22 09:02:54;;;;;;;43.47;39.30;;;24.50;1.00;;;;;;5036740;28;20557;-60
2023/05/22 09:05:25;;;;;;;44.87;40.17;;;24.80;99.90;;;;;;5036723;28;20473;-59
2023/05/22 09:07:52;;;;;;;49.47;44.73;;;24.50;99.90;;;;;;5037390;28;20467;-59
2023/05/22 09:10:21;;;;;;;48.13;43.83;;;24.60;1.00;;;;;;5037039;28;20557;-60
2023/05/22 09:13:02;;;;;;;48.57;44.27;;;25.00;99.90;;;;;;5036395;28;20467;-59
2023/05/22 09:15:31;;;;;;;53.73;48.67;;;24.90;99.90;;;;;;5036820;28;20517;-59
2023/05/22 09:17:58;;;;;;;58.53;52.93;;;25.40;1.00;;;;;;5037170;28;20470;-59
2023/05/22 09:20:25;;;;;;;58.20;52.70;;;25.60;99.90;;;;;;5036464;28;20463;-58
2023/05/22 09:22:53;;;;;;;55.50;50.30;;;25.60;99.90;;;;;;5036625;28;20462;-59
2023/05/22 09:25:22;;;;;;;58.63;53.03;;;25.50;99.90;;;;;;5036753;28;20561;-59
2023/05/22 09:27:49;;;;;;;62.07;55.93;;;25.60;99.90;;;;;;5036736;28;20903;-58
2023/05/22 09:30:17;;;;;;;73.17;66.20;;;24.90;99.90;;;;;;5016816;28;20558;-58
2023/05/22 09:32:45;;;;;;;70.30;63.50;;;25.50;1.00;;;;;;5016553;28;20479;-59
2023/05/22 09:35:14;;;;;;;71.50;64.57;;;25.80;99.90;;;;;;5030366;28;20451;-58
2023/05/22 09:37:41;;;;;;;69.30;63.13;;;24.40;99.90;;;;;;5031846;28;20590;-58
2023/05/22 09:40:12;;;;;;;65.73;59.43;;;24.80;1.00;;;;;;4997202;28;21008;-59
2023/05/22 09:42:44;;;;;;;64.50;58.30;;;25.20;99.90;;;;;;5014300;28;20475;-58
2023/05/22 09:45:12;;;;;;;60.63;55.17;;;24.90;99.90;;;;;;5016309;28;20760;-58
2023/05/22 09:47:40;;;;;;;58.50;52.70;;;24.30;99.90;;;;;;5019375;28;20512;-59
2023/05/22 09:50:09;;;;;;;58.20;52.10;;;24.40;99.90;;;;;;5020486;28;20463;-59
2023/05/22 09:52:37;;;;;;;58.83;53.20;;;24.30;99.90;;;;;;5023190;28;20462;-59
2023/05/22 09:55:08;;;;;;;55.43;50.30;;;24.50;99.90;;;;;;5024979;28;20553;-60
2023/05/22 09:57:43;;;;;;;55.70;50.27;;;23.90;99.90;;;;;;5035948;28;20526;-60
2023/05/22 10:00:17;;;;;;;54.97;49.27;;;23.70;99.90;;;;;;5019818;28;20499;-59
2023/05/22 10:02:46;;;;;;;57.80;52.23;;;24.10;1.00;;;;;;5018797;28;20476;-58
2023/05/22 10:05:20;;;;;;;59.53;53.77;;;25.10;99.90;;;;;;5018701;28;20500;-59
2023/05/22 10:07:50;;;;;;;59.93;54.00;;;25.50;99.90;;;;;;5019736;28;20442;-58
2023/05/22 10:10:21;;;;;;;58.33;52.73;;;25.50;99.90;;;;;;5018500;28;20848;-58
2023/05/22 10:12:56;;;;;;;58.43;52.60;;;25.50;99.90;;;;;;5017857;28;20515;-59
2023/05/22 10:15:23;;;;;;;62.30;56.20;;;25.60;99.90;;;;;;5019048;28;20467;-59
2023/05/22 10:17:51;;;;;;;60.00;54.00;;;24.80;99.90;;;;;;5018811;28;20911;-59
2023/05/22 10:20:19;;;;;;;64.93;58.20;;;24.30;99.90;;;;;;5016876;28;20583;-59
2023/05/22 10:22:48;;;;;;;60.80;54.73;;;23.60;99.90;;;;;;5013417;28;20733;-59
2023/05/22 10:25:17;;;;;;;63.87;57.40;;;23.50;1.00;;;;;;4996137;28;20492;-57
2023/05/22 10:27:44;;;;;;;65.30;58.40;;;24.20;99.90;;;;;;4995406;28;20482;-58
2023/05/22 10:30:22;;;;;;;62.50;56.20;;;24.20;99.90;;;;;;5014251;28;20479;-59
2023/05/22 10:32:57;;;;;;;63.80;57.40;;;24.50;99.90;;;;;;5015223;28;20545;-59
2023/05/22 10:35:32;;;;;;;66.03;59.00;;;25.10;99.90;;;;;;5018206;28;20470;-58
2023/05/22 10:38:26;;;;;;;63.80;57.10;;;25.70;99.90;;;;;;5019302;28;20475;-59
2023/05/22 10:40:54;;;;;;;62.93;56.27;;;26.00;99.90;;;;;;5018792;28;20893;-59
2023/05/22 10:43:24;;;;;;;61.37;54.97;;;25.80;99.90;;;;;;5017651;28;20562;-59
2023/05/22 10:46:03;;;;;;;64.83;58.33;;;25.50;99.90;;;;;;5022112;28;20896;-59
2023/05/22 10:48:36;;;;;;;60.73;54.40;;;25.00;99.90;;;;;;5031456;28;20470;-60
2023/05/22 10:51:04;;;;;;;59.20;53.40;;;25.10;99.90;;;;;;5033768;28;20991;-59
2023/05/22 10:53:32;;;;;;;57.50;51.63;;;25.90;99.90;;;;;;5031879;28;20466;-59
2023/05/22 10:56:08;;;;;;;58.20;52.50;;;26.40;99.90;;;;;;5034181;28;20782;-58
2023/05/22 10:58:36;;;;;;;53.90;48.87;;;26.80;99.90;;;;;;5029121;28;20561;-61
2023/05/22 11:01:12;;;;;;;54.17;48.77;;;26.70;99.90;;;;;;5033311;28;20477;-60
2023/05/22 11:03:56;;;;;;;52.30;47.20;;;26.00;99.90;;;;;;5034419;28;20553;-59
2023/05/22 11:06:36;;;;;;;52.57;47.47;;;26.10;99.90;;;;;;5032398;28;20463;-58
2023/05/22 11:09:32;;;;;;;49.90;44.97;;;26.20;99.90;;;;;;5033578;28;20461;-59
2023/05/22 11:12:18;;;;;;;45.53;41.47;;;27.20;99.90;;;;;;5021035;28;20471;-59
2023/05/22 11:14:54;;;;;;;50.07;45.40;;;27.20;99.90;;;;;;5029010;28;20612;-59
2023/05/22 11:17:24;;;;;;;46.07;41.97;;;27.10;99.90;;;;;;5033035;28;20467;-59
2023/05/22 11:19:59;;;;;;;47.40;43.30;;;27.20;99.90;;;;;;5034849;28;20557;-59
2023/05/22 11:22:35;;;;;;;46.67;42.57;;;26.50;99.90;;;;;;5032361;28;20463;-59
2023/05/22 11:25:06;;;;;;;45.80;41.67;;;27.30;99.90;;;;;;5036083;28;20494;-60
2023/05/22 11:27:35;;;;;;;44.23;40.20;;;26.90;99.90;;;;;;5032466;28;20471;-59
2023/05/22 11:30:02;;;;;;;43.10;39.50;;;27.50;99.90;;;;;;5035002;28;20810;-59
2023/05/22 11:32:31;;;;;;;42.10;38.33;;;28.00;99.90;;;;;;5034698;28;20565;-59
2023/05/22 11:34:58;;;;;;;44.93;40.90;;;27.80;99.90;;;;;;5036343;28;20466;-59
2023/05/22 11:37:25;;;;;;;41.73;37.93;;;27.10;99.90;;;;;;5036536;28;20850;-59
2023/05/22 11:39:56;;;;;;;43.73;40.03;;;27.40;99.90;;;;;;5036214;28;20585;-59
2023/05/22 11:42:23;;;;;;;45.10;41.10;;;26.90;99.90;;;;;;5037279;28;20437;-58
2023/05/22 11:44:51;;;;;;;41.33;37.73;;;25.80;99.90;;;;;;5035285;28;20794;-58
2023/05/22 11:47:18;;;;;;;42.83;39.33;;;26.20;99.90;;;;;;5037759;28;20463;-58
2023/05/22 11:49:47;;;;;;;41.73;38.13;;;26.20;99.90;;;;;;5036571;28;20531;-58
2023/05/22 11:52:16;;;;;;;42.33;38.40;;;26.70;99.90;;;;;;5038066;28;20463;-58
2023/05/22 11:54:45;;;;;;;40.70;36.90;;;27.00;99.90;;;;;;5037903;28;20601;-59
2023/05/22 11:57:13;;;;;;;36.77;33.70;;;27.60;99.90;;;;;;5036169;28;20462;-58
2023/05/22 11:59:41;;;;;;;44.00;40.23;;;27.80;99.90;;;;;;5051985;28;20490;-59
2023/05/22 12:02:08;;;;;;;41.13;37.57;;;28.10;99.90;;;;;;5044738;28;20530;-58
2023/05/22 12:04:37;;;;;;;39.87;36.60;;;28.60;99.90;;;;;;5036152;28;20479;-59
2023/05/22 12:07:06;;;;;;;42.07;38.47;;;28.10;99.90;;;;;;5037219;28;20441;-59
2023/05/22 12:09:34;;;;;;;46.23;42.17;;;27.60;99.90;;;;;;5037275;28;20490;-59
2023/05/22 12:12:01;;;;;;;41.30;37.67;;;27.50;99.90;;;;;;5037021;28;20562;-59
2023/05/22 12:14:30;;;;;;;43.90;40.10;;;27.80;99.90;;;;;;5037443;28;20463;-60
2023/05/22 12:16:59;;;;;;;46.47;42.40;;;27.40;99.90;;;;;;5037211;28;20473;-59
2023/05/22 12:19:27;;;;;;;45.10;40.87;;;27.50;99.90;;;;;;5033682;28;20490;-60
2023/05/22 12:21:54;;;;;;;47.57;43.13;;;28.00;99.90;;;;;;5037106;28;20479;-59
2023/05/22 12:24:23;;;;;;;46.10;41.90;;;28.20;99.90;;;;;;5036246;28;20462;-60
2023/05/22 12:26:51;;;;;;;45.87;41.73;;;27.70;99.90;;;;;;5040913;28;20506;-60
2023/05/22 12:29:18;;;;;;;42.63;38.77;;;27.90;99.90;;;;;;5043590;28;20483;-59
2023/05/22 12:31:46;;;;;;;41.57;37.80;;;28.00;99.90;;;;;;5045133;28;20751;-60
2023/05/22 12:34:14;;;;;;;38.00;34.80;;;28.00;99.90;;;;;;5044846;28;20455;-60
2023/05/22 12:36:43;;;;;;;38.87;35.33;;;27.70;99.90;;;;;;5042593;28;20459;-60